sensor_id;sensor_type;location;lat;lon;timestamp;temperature;humidity
13794;DHT22;31160;49.500;7.772;2022-10-28T00:01:06;12.90;99.90
13794;DHT22;31160;49.500;7.772;2022-10-28T00:03:37;13.00;99.90
13794;DHT22;31160;49.500;7.772;2022-10-28T00:06:06;12.90;99.90
13794;DHT22;31160;49.500;7.772;2022-10-28T00:08:33;12.90;99.90
13794;DHT22;31160;49.500;7.772;2022-10-28T00:11:09;12.90;99.90
13794;DHT22;31160;49.500;7.772;2022-10-28T00:13:36;13.00;99.90
13794;DHT22;31160;49.500;7.772;2022-10-28T00:16:18;13.00;99.90
13794;DHT22;31160;49.500;7.772;2022-10-28T00:18:46;13.10;99.90
13794;DHT22;31160;49.500;7.772;2022-10-28T00:21:21;13.00;99.90
13794;DHT22;31160;49.500;7.772;2022-10-28T00:23:49;13.20;99.90
13794;DHT22;31160;49.500;7.772;2022-10-28T00:26:18;13.20;99.90
13794;DHT22;31160;49.500;7.772;2022-10-28T00:28:47;13.20;99.90
13794;DHT22;31160;49.500;7.772;2022-10-28T00:31:16;13.10;99.90
13794;DHT22;31160;49.500;7.772;2022-10-28T00:33:43;13.10;99.90
13794;DHT22;31160;49.500;7.772;2022-10-28T00:38:47;13.10;99.90
13794;DHT22;31160;49.500;7.772;2022-10-28T00:41:20;13.10;99.90
13794;DHT22;31160;49.500;7.772;2022-10-28T00:43:49;13.10;99.90
13794;DHT22;31160;49.500;7.772;2022-10-28T00:46:41;13.10;99.90
13794;DHT22;31160;49.500;7.772;2022-10-28T00:49:23;13.10;99.90
13794;DHT22;31160;49.500;7.772;2022-10-28T00:51:59;13.10;99.90
13794;DHT22;31160;49.500;7.772;2022-10-28T00:54:26;13.20;99.90
13794;DHT22;31160;49.500;7.772;2022-10-28T00:56:55;13.10;99.90
13794;DHT22;31160;49.500;7.772;2022-10-28T00:59:25;13.10;99.90
13794;DHT22;31160;49.500;7.772;2022-10-28T01:01:53;13.10;99.90
13794;DHT22;31160;49.500;7.772;2022-10-28T01:04:20;13.20;99.90
13794;DHT22;31160;49.500;7.772;2022-10-28T01:06:48;13.10;99.90
13794;DHT22;31160;49.500;7.772;2022-10-28T01:09:15;13.20;99.90
13794;DHT22;31160;49.500;7.772;2022-10-28T01:11:55;13.30;99.90
13794;DHT22;31160;49.500;7.772;2022-10-28T01:14:43;13.30;99.90
13794;DHT22;31160;49.500;7.772;2022-10-28T01:23:06;13.30;99.90
13794;DHT22;31160;49.500;7.772;2022-10-28T01:28:39;13.40;99.90
13794;DHT22;31160;49.500;7.772;2022-10-28T01:42:07;13.30;99.90
13794;DHT22;31160;49.500;7.772;2022-10-28T01:44:45;13.30;99.90
13794;DHT22;31160;49.500;7.772;2022-10-28T01:47:23;13.30;99.90
13794;DHT22;31160;49.500;7.772;2022-10-28T01:49:59;13.30;99.90
13794;DHT22;31160;49.500;7.772;2022-10-28T01:52:30;13.30;99.90
13794;DHT22;31160;49.500;7.772;2022-10-28T01:55:02;13.30;99.90
13794;DHT22;31160;49.500;7.772;2022-10-28T01:57:30;13.30;99.90
13794;DHT22;31160;49.500;7.772;2022-10-28T01:59:59;13.30;99.90
13794;DHT22;31160;49.500;7.772;2022-10-28T02:02:31;13.20;99.90
13794;DHT22;31160;49.500;7.772;2022-10-28T02:07:55;13.20;99.90
13794;DHT22;31160;49.500;7.772;2022-10-28T02:10:29;13.10;99.90
13794;DHT22;31160;49.500;7.772;2022-10-28T02:13:05;13.00;99.90
13794;DHT22;31160;49.500;7.772;2022-10-28T02:15:50;13.10;99.90
13794;DHT22;31160;49.500;7.772;2022-10-28T02:21:14;13.10;99.90
13794;DHT22;31160;49.500;7.772;2022-10-28T02:23:55;13.10;99.90
13794;DHT22;31160;49.500;7.772;2022-10-28T02:26:34;13.10;99.90
13794;DHT22;31160;49.500;7.772;2022-10-28T02:29:46;13.20;99.90
13794;DHT22;31160;49.500;7.772;2022-10-28T02:32:00;13.20;99.90
13794;DHT22;31160;49.500;7.772;2022-10-28T02:34:35;13.30;99.90
13794;DHT22;31160;49.500;7.772;2022-10-28T02:37:10;13.30;99.90
13794;DHT22;31160;49.500;7.772;2022-10-28T02:39:40;13.30;99.90
13794;DHT22;31160;49.500;7.772;2022-10-28T02:42:16;13.30;99.90
13794;DHT22;31160;49.500;7.772;2022-10-28T02:44:48;13.30;99.90
13794;DHT22;31160;49.500;7.772;2022-10-28T02:47:19;13.30;99.90
13794;DHT22;31160;49.500;7.772;2022-10-28T02:49:54;13.40;99.90
13794;DHT22;31160;49.500;7.772;2022-10-28T02:52:24;13.40;99.90
13794;DHT22;31160;49.500;7.772;2022-10-28T02:54:58;13.40;99.90
13794;DHT22;31160;49.500;7.772;2022-10-28T02:57:28;13.30;99.90
13794;DHT22;31160;49.500;7.772;2022-10-28T02:59:58;13.20;99.90
13794;DHT22;31160;49.500;7.772;2022-10-28T03:02:26;13.20;99.90
13794;DHT22;31160;49.500;7.772;2022-10-28T03:04:53;13.20;99.90
13794;DHT22;31160;49.500;7.772;2022-10-28T03:07:20;13.30;99.90
13794;DHT22;31160;49.500;7.772;2022-10-28T03:09:46;13.40;99.90
13794;DHT22;31160;49.500;7.772;2022-10-28T03:12:13;13.30;99.90
13794;DHT22;31160;49.500;7.772;2022-10-28T03:14:40;13.30;99.90
13794;DHT22;31160;49.500;7.772;2022-10-28T03:17:07;13.30;99.90
13794;DHT22;31160;49.500;7.772;2022-10-28T03:19:34;13.30;99.90
13794;DHT22;31160;49.500;7.772;2022-10-28T03:22:01;13.40;99.90
13794;DHT22;31160;49.500;7.772;2022-10-28T03:24:28;13.40;99.90
13794;DHT22;31160;49.500;7.772;2022-10-28T03:26:54;13.40;99.90
13794;DHT22;31160;49.500;7.772;2022-10-28T03:29:21;13.40;99.90
13794;DHT22;31160;49.500;7.772;2022-10-28T03:31:48;13.40;99.90
13794;DHT22;31160;49.500;7.772;2022-10-28T03:34:14;13.30;99.90
13794;DHT22;31160;49.500;7.772;2022-10-28T03:36:41;13.30;99.90
13794;DHT22;31160;49.500;7.772;2022-10-28T03:39:08;13.30;99.90
13794;DHT22;31160;49.500;7.772;2022-10-28T03:41:35;13.20;99.90
13794;DHT22;31160;49.500;7.772;2022-10-28T03:44:02;13.30;99.90
13794;DHT22;31160;49.500;7.772;2022-10-28T03:46:28;13.30;99.90
13794;DHT22;31160;49.500;7.772;2022-10-28T03:49:00;13.30;99.90
13794;DHT22;31160;49.500;7.772;2022-10-28T03:51:27;13.20;99.90
13794;DHT22;31160;49.500;7.772;2022-10-28T03:53:53;13.10;99.90
13794;DHT22;31160;49.500;7.772;2022-10-28T03:56:20;13.10;99.90
13794;DHT22;31160;49.500;7.772;2022-10-28T03:58:48;13.10;99.90
13794;DHT22;31160;49.500;7.772;2022-10-28T04:01:15;13.10;99.90
13794;DHT22;31160;49.500;7.772;2022-10-28T04:03:41;13.00;99.90
13794;DHT22;31160;49.500;7.772;2022-10-28T04:06:08;12.90;99.90
13794;DHT22;31160;49.500;7.772;2022-10-28T04:08:38;13.00;99.90
13794;DHT22;31160;49.500;7.772;2022-10-28T04:11:05;12.90;99.90
13794;DHT22;31160;49.500;7.772;2022-10-28T04:13:31;12.90;99.90
13794;DHT22;31160;49.500;7.772;2022-10-28T04:15:58;12.90;99.90
13794;DHT22;31160;49.500;7.772;2022-10-28T04:18:27;13.00;99.90
13794;DHT22;31160;49.500;7.772;2022-10-28T04:20:54;13.00;99.90
13794;DHT22;31160;49.500;7.772;2022-10-28T04:23:20;12.90;99.90
13794;DHT22;31160;49.500;7.772;2022-10-28T04:25:51;12.90;99.90
13794;DHT22;31160;49.500;7.772;2022-10-28T04:28:19;12.90;99.90
13794;DHT22;31160;49.500;7.772;2022-10-28T04:30:47;12.90;99.90
13794;DHT22;31160;49.500;7.772;2022-10-28T04:33:14;12.80;99.90
13794;DHT22;31160;49.500;7.772;2022-10-28T04:35:41;12.80;99.90
13794;DHT22;31160;49.500;7.772;2022-10-28T04:38:09;12.70;99.90
13794;DHT22;31160;49.500;7.772;2022-10-28T04:40:36;12.80;99.90
13794;DHT22;31160;49.500;7.772;2022-10-28T04:43:03;12.80;99.90
13794;DHT22;31160;49.500;7.772;2022-10-28T04:45:36;12.70;99.90
13794;DHT22;31160;49.500;7.772;2022-10-28T04:48:03;12.70;99.90
13794;DHT22;31160;49.500;7.772;2022-10-28T04:50:29;12.70;99.90
13794;DHT22;31160;49.500;7.772;2022-10-28T04:52:58;12.70;99.90
13794;DHT22;31160;49.500;7.772;2022-10-28T04:55:25;12.70;99.90
13794;DHT22;31160;49.500;7.772;2022-10-28T04:57:56;12.70;99.90
13794;DHT22;31160;49.500;7.772;2022-10-28T05:00:24;12.70;99.90
13794;DHT22;31160;49.500;7.772;2022-10-28T05:02:51;12.70;99.90
13794;DHT22;31160;49.500;7.772;2022-10-28T05:05:19;12.70;99.90
13794;DHT22;31160;49.500;7.772;2022-10-28T05:07:46;12.70;99.90
13794;DHT22;31160;49.500;7.772;2022-10-28T05:10:13;12.70;99.90
13794;DHT22;31160;49.500;7.772;2022-10-28T05:12:41;12.70;99.90
13794;DHT22;31160;49.500;7.772;2022-10-28T05:15:09;12.70;99.90
13794;DHT22;31160;49.500;7.772;2022-10-28T05:17:43;12.70;99.90
13794;DHT22;31160;49.500;7.772;2022-10-28T05:20:11;12.70;99.90
13794;DHT22;31160;49.500;7.772;2022-10-28T05:22:47;12.70;99.90
13794;DHT22;31160;49.500;7.772;2022-10-28T05:25:15;12.70;99.90
13794;DHT22;31160;49.500;7.772;2022-10-28T05:27:42;12.70;99.90
13794;DHT22;31160;49.500;7.772;2022-10-28T05:30:09;12.70;99.90
13794;DHT22;31160;49.500;7.772;2022-10-28T05:32:36;12.70;99.90
13794;DHT22;31160;49.500;7.772;2022-10-28T05:35:04;12.80;99.90
13794;DHT22;31160;49.500;7.772;2022-10-28T05:37:31;12.80;99.90
13794;DHT22;31160;49.500;7.772;2022-10-28T05:39:58;12.80;99.90
13794;DHT22;31160;49.500;7.772;2022-10-28T05:42:24;12.80;99.90
13794;DHT22;31160;49.500;7.772;2022-10-28T05:44:51;12.80;99.90
13794;DHT22;31160;49.500;7.772;2022-10-28T05:47:18;12.70;99.90
13794;DHT22;31160;49.500;7.772;2022-10-28T05:49:45;12.70;99.90
13794;DHT22;31160;49.500;7.772;2022-10-28T05:52:11;12.70;99.90
13794;DHT22;31160;49.500;7.772;2022-10-28T05:54:38;12.80;99.90
13794;DHT22;31160;49.500;7.772;2022-10-28T05:57:05;12.80;99.90
13794;DHT22;31160;49.500;7.772;2022-10-28T05:59:31;12.80;99.90
13794;DHT22;31160;49.500;7.772;2022-10-28T06:01:58;12.80;99.90
13794;DHT22;31160;49.500;7.772;2022-10-28T06:04:25;12.80;99.90
13794;DHT22;31160;49.500;7.772;2022-10-28T06:06:54;12.80;99.90
13794;DHT22;31160;49.500;7.772;2022-10-28T06:09:21;12.80;99.90
13794;DHT22;31160;49.500;7.772;2022-10-28T06:11:48;12.80;99.90
13794;DHT22;31160;49.500;7.772;2022-10-28T06:14:15;12.80;99.90
13794;DHT22;31160;49.500;7.772;2022-10-28T06:16:41;12.80;99.90
13794;DHT22;31160;49.500;7.772;2022-10-28T06:19:09;12.80;99.90
13794;DHT22;31160;49.500;7.772;2022-10-28T06:21:36;12.70;99.90
13794;DHT22;31160;49.500;7.772;2022-10-28T06:24:03;12.70;99.90
13794;DHT22;31160;49.500;7.772;2022-10-28T06:26:29;12.70;99.90
13794;DHT22;31160;49.500;7.772;2022-10-28T06:28:56;12.80;99.90
13794;DHT22;31160;49.500;7.772;2022-10-28T06:31:23;12.80;99.90
13794;DHT22;31160;49.500;7.772;2022-10-28T06:33:50;12.80;99.90
13794;DHT22;31160;49.500;7.772;2022-10-28T06:36:17;12.70;99.90
13794;DHT22;31160;49.500;7.772;2022-10-28T06:38:43;12.70;99.90
13794;DHT22;31160;49.500;7.772;2022-10-28T06:41:10;12.70;99.90
13794;DHT22;31160;49.500;7.772;2022-10-28T06:43:37;12.70;99.90
13794;DHT22;31160;49.500;7.772;2022-10-28T06:46:04;12.70;99.90
13794;DHT22;31160;49.500;7.772;2022-10-28T06:48:31;12.70;99.90
13794;DHT22;31160;49.500;7.772;2022-10-28T06:50:58;12.80;99.90
13794;DHT22;31160;49.500;7.772;2022-10-28T06:53:25;12.80;99.90
13794;DHT22;31160;49.500;7.772;2022-10-28T06:55:56;12.90;99.90
13794;DHT22;31160;49.500;7.772;2022-10-28T06:58:24;12.90;99.90
13794;DHT22;31160;49.500;7.772;2022-10-28T07:00:51;13.00;99.90
13794;DHT22;31160;49.500;7.772;2022-10-28T07:03:18;13.10;99.90
13794;DHT22;31160;49.500;7.772;2022-10-28T07:05:46;13.10;99.90
13794;DHT22;31160;49.500;7.772;2022-10-28T07:08:14;13.10;99.90
13794;DHT22;31160;49.500;7.772;2022-10-28T07:10:41;13.10;99.90
13794;DHT22;31160;49.500;7.772;2022-10-28T07:13:08;13.10;99.90
13794;DHT22;31160;49.500;7.772;2022-10-28T07:15:34;13.30;99.90
13794;DHT22;31160;49.500;7.772;2022-10-28T07:18:01;13.30;99.90
13794;DHT22;31160;49.500;7.772;2022-10-28T07:20:28;13.20;99.90
13794;DHT22;31160;49.500;7.772;2022-10-28T07:22:58;13.20;99.90
13794;DHT22;31160;49.500;7.772;2022-10-28T07:25:29;13.20;99.90
13794;DHT22;31160;49.500;7.772;2022-10-28T07:27:59;13.20;99.90
13794;DHT22;31160;49.500;7.772;2022-10-28T07:30:26;13.30;99.90
13794;DHT22;31160;49.500;7.772;2022-10-28T07:32:53;13.40;99.90
13794;DHT22;31160;49.500;7.772;2022-10-28T07:35:21;13.50;99.90
13794;DHT22;31160;49.500;7.772;2022-10-28T07:37:48;13.60;99.90
13794;DHT22;31160;49.500;7.772;2022-10-28T07:40:15;13.60;99.90
13794;DHT22;31160;49.500;7.772;2022-10-28T07:42:42;13.60;99.90
13794;DHT22;31160;49.500;7.772;2022-10-28T07:45:09;13.70;99.90
13794;DHT22;31160;49.500;7.772;2022-10-28T07:47:35;13.80;99.90
13794;DHT22;31160;49.500;7.772;2022-10-28T07:50:03;13.90;99.90
13794;DHT22;31160;49.500;7.772;2022-10-28T07:52:30;14.00;99.90
13794;DHT22;31160;49.500;7.772;2022-10-28T07:54:57;14.10;99.90
13794;DHT22;31160;49.500;7.772;2022-10-28T07:57:23;14.10;99.90
13794;DHT22;31160;49.500;7.772;2022-10-28T07:59:50;14.10;99.90
13794;DHT22;31160;49.500;7.772;2022-10-28T08:02:19;14.10;99.90
13794;DHT22;31160;49.500;7.772;2022-10-28T08:04:47;14.10;99.90
13794;DHT22;31160;49.500;7.772;2022-10-28T08:07:15;14.20;99.90
13794;DHT22;31160;49.500;7.772;2022-10-28T08:09:42;14.20;99.90
13794;DHT22;31160;49.500;7.772;2022-10-28T08:12:15;14.20;99.90
13794;DHT22;31160;49.500;7.772;2022-10-28T08:14:42;14.30;99.90
13794;DHT22;31160;49.500;7.772;2022-10-28T08:17:08;14.40;99.90
13794;DHT22;31160;49.500;7.772;2022-10-28T08:19:35;14.60;99.90
13794;DHT22;31160;49.500;7.772;2022-10-28T08:22:02;14.70;99.90
13794;DHT22;31160;49.500;7.772;2022-10-28T08:24:29;14.70;99.90
13794;DHT22;31160;49.500;7.772;2022-10-28T08:26:56;14.60;99.90
13794;DHT22;31160;49.500;7.772;2022-10-28T08:29:22;14.60;99.90
13794;DHT22;31160;49.500;7.772;2022-10-28T08:31:55;14.50;99.90
13794;DHT22;31160;49.500;7.772;2022-10-28T08:34:23;14.40;99.90
13794;DHT22;31160;49.500;7.772;2022-10-28T08:36:56;14.40;99.90
13794;DHT22;31160;49.500;7.772;2022-10-28T08:39:23;14.40;99.90
13794;DHT22;31160;49.500;7.772;2022-10-28T08:41:57;14.40;99.90
13794;DHT22;31160;49.500;7.772;2022-10-28T08:47:32;14.60;99.90
13794;DHT22;31160;49.500;7.772;2022-10-28T08:50:09;14.80;99.90
13794;DHT22;31160;49.500;7.772;2022-10-28T08:52:45;14.90;99.90
13794;DHT22;31160;49.500;7.772;2022-10-28T08:55:17;14.80;99.90
13794;DHT22;31160;49.500;7.772;2022-10-28T09:00:52;14.90;99.90
13794;DHT22;31160;49.500;7.772;2022-10-28T09:03:25;15.00;99.90
13794;DHT22;31160;49.500;7.772;2022-10-28T09:05:58;15.10;99.90
13794;DHT22;31160;49.500;7.772;2022-10-28T09:08:27;15.30;99.90
13794;DHT22;31160;49.500;7.772;2022-10-28T09:19:50;15.40;99.90
13794;DHT22;31160;49.500;7.772;2022-10-28T09:25:00;15.70;99.90
13794;DHT22;31160;49.500;7.772;2022-10-28T09:33:14;16.30;99.90
13794;DHT22;31160;49.500;7.772;2022-10-28T09:35:45;16.40;99.90
13794;DHT22;31160;49.500;7.772;2022-10-28T09:38:27;16.60;99.90
13794;DHT22;31160;49.500;7.772;2022-10-28T09:41:10;16.70;99.90
13794;DHT22;31160;49.500;7.772;2022-10-28T09:43:54;17.00;99.90
13794;DHT22;31160;49.500;7.772;2022-10-28T09:46:24;17.20;99.90
13794;DHT22;31160;49.500;7.772;2022-10-28T09:48:57;17.40;99.90
13794;DHT22;31160;49.500;7.772;2022-10-28T09:51:33;17.60;99.90
13794;DHT22;31160;49.500;7.772;2022-10-28T09:54:10;17.80;99.90
13794;DHT22;31160;49.500;7.772;2022-10-28T09:56:37;17.90;99.90
13794;DHT22;31160;49.500;7.772;2022-10-28T09:59:05;18.10;99.90
13794;DHT22;31160;49.500;7.772;2022-10-28T10:01:35;18.20;99.90
13794;DHT22;31160;49.500;7.772;2022-10-28T10:04:15;18.30;99.90
13794;DHT22;31160;49.500;7.772;2022-10-28T10:06:44;18.50;99.90
13794;DHT22;31160;49.500;7.772;2022-10-28T10:09:23;18.70;99.90
13794;DHT22;31160;49.500;7.772;2022-10-28T10:11:58;19.00;99.90
13794;DHT22;31160;49.500;7.772;2022-10-28T10:14:35;19.30;99.90
13794;DHT22;31160;49.500;7.772;2022-10-28T10:17:06;19.50;99.90
13794;DHT22;31160;49.500;7.772;2022-10-28T10:20:00;19.60;99.90
13794;DHT22;31160;49.500;7.772;2022-10-28T10:27:56;20.00;99.90
13794;DHT22;31160;49.500;7.772;2022-10-28T10:30:38;20.00;99.90
13794;DHT22;31160;49.500;7.772;2022-10-28T10:33:16;20.00;99.90
13794;DHT22;31160;49.500;7.772;2022-10-28T10:35:52;20.00;99.90
13794;DHT22;31160;49.500;7.772;2022-10-28T10:38:26;20.00;99.90
13794;DHT22;31160;49.500;7.772;2022-10-28T10:40:53;20.00;99.90
13794;DHT22;31160;49.500;7.772;2022-10-28T10:48:33;20.10;99.90
13794;DHT22;31160;49.500;7.772;2022-10-28T10:53:36;20.00;99.90
13794;DHT22;31160;49.500;7.772;2022-10-28T10:56:06;20.20;99.90
13794;DHT22;31160;49.500;7.772;2022-10-28T10:58:37;20.40;99.90
13794;DHT22;31160;49.500;7.772;2022-10-28T11:01:05;20.60;99.90
13794;DHT22;31160;49.500;7.772;2022-10-28T11:03:38;20.70;99.90
13794;DHT22;31160;49.500;7.772;2022-10-28T11:06:08;21.00;99.90
13794;DHT22;31160;49.500;7.772;2022-10-28T11:08:57;21.10;99.90
13794;DHT22;31160;49.500;7.772;2022-10-28T11:11:38;21.30;99.90
13794;DHT22;31160;49.500;7.772;2022-10-28T11:14:28;21.50;99.90
13794;DHT22;31160;49.500;7.772;2022-10-28T11:16:57;21.60;99.90
13794;DHT22;31160;49.500;7.772;2022-10-28T11:19:35;21.70;99.90
13794;DHT22;31160;49.500;7.772;2022-10-28T11:30:47;22.30;99.90
13794;DHT22;31160;49.500;7.772;2022-10-28T11:33:18;22.40;99.90
13794;DHT22;31160;49.500;7.772;2022-10-28T11:36:10;22.60;99.90
13794;DHT22;31160;49.500;7.772;2022-10-28T11:38:59;22.70;99.90
13794;DHT22;31160;49.500;7.772;2022-10-28T11:55:46;23.20;97.50
13794;DHT22;31160;49.500;7.772;2022-10-28T11:58:31;23.40;96.80
13794;DHT22;31160;49.500;7.772;2022-10-28T12:12:34;23.60;96.40
13794;DHT22;31160;49.500;7.772;2022-10-28T12:17:55;23.60;96.10
13794;DHT22;31160;49.500;7.772;2022-10-28T12:20:32;23.50;96.10
13794;DHT22;31160;49.500;7.772;2022-10-28T12:23:05;23.50;96.10
13794;DHT22;31160;49.500;7.772;2022-10-28T12:25:35;23.60;95.60
13794;DHT22;31160;49.500;7.772;2022-10-28T12:28:12;23.60;96.00
13794;DHT22;31160;49.500;7.772;2022-10-28T12:30:40;23.60;96.20
13794;DHT22;31160;49.500;7.772;2022-10-28T12:33:24;23.40;96.30
13794;DHT22;31160;49.500;7.772;2022-10-28T12:38:41;23.30;96.30
13794;DHT22;31160;49.500;7.772;2022-10-28T12:41:17;23.30;96.50
13794;DHT22;31160;49.500;7.772;2022-10-28T12:43:52;23.30;96.70
13794;DHT22;31160;49.500;7.772;2022-10-28T12:49:34;23.40;96.60
13794;DHT22;31160;49.500;7.772;2022-10-28T12:55:06;23.60;96.40
13794;DHT22;31160;49.500;7.772;2022-10-28T12:57:38;23.80;96.10
13794;DHT22;31160;49.500;7.772;2022-10-28T13:05:26;23.90;95.70
13794;DHT22;31160;49.500;7.772;2022-10-28T13:10:57;23.70;96.30
13794;DHT22;31160;49.500;7.772;2022-10-28T13:22:47;23.60;96.30
13794;DHT22;31160;49.500;7.772;2022-10-28T13:24:56;23.40;96.50
13794;DHT22;31160;49.500;7.772;2022-10-28T13:27:24;23.40;96.80
13794;DHT22;31160;49.500;7.772;2022-10-28T13:29:53;23.40;96.60
13794;DHT22;31160;49.500;7.772;2022-10-28T13:32:30;23.40;96.80
13794;DHT22;31160;49.500;7.772;2022-10-28T13:35:24;23.40;97.00
13794;DHT22;31160;49.500;7.772;2022-10-28T13:37:53;23.40;96.90
13794;DHT22;31160;49.500;7.772;2022-10-28T13:43:54;23.30;96.70
13794;DHT22;31160;49.500;7.772;2022-10-28T13:46:07;23.20;97.10
13794;DHT22;31160;49.500;7.772;2022-10-28T13:53:37;23.10;96.90
13794;DHT22;31160;49.500;7.772;2022-10-28T13:58:58;23.00;97.00
13794;DHT22;31160;49.500;7.772;2022-10-28T14:04:02;22.90;97.60
13794;DHT22;31160;49.500;7.772;2022-10-28T14:06:31;22.90;96.80
13794;DHT22;31160;49.500;7.772;2022-10-28T14:08:59;22.80;97.00
13794;DHT22;31160;49.500;7.772;2022-10-28T14:11:26;22.70;97.10
13794;DHT22;31160;49.500;7.772;2022-10-28T14:13:58;22.60;97.20
13794;DHT22;31160;49.500;7.772;2022-10-28T14:16:35;22.40;97.30
13794;DHT22;31160;49.500;7.772;2022-10-28T14:19:15;22.30;97.90
13794;DHT22;31160;49.500;7.772;2022-10-28T14:21:51;22.30;97.60
13794;DHT22;31160;49.500;7.772;2022-10-28T14:24:35;22.30;97.70
13794;DHT22;31160;49.500;7.772;2022-10-28T14:29:29;22.10;98.10
13794;DHT22;31160;49.500;7.772;2022-10-28T14:31:55;22.00;98.40
13794;DHT22;31160;49.500;7.772;2022-10-28T14:34:31;21.90;98.70
13794;DHT22;31160;49.500;7.772;2022-10-28T14:40:16;21.90;99.00
13794;DHT22;31160;49.500;7.772;2022-10-28T14:45:36;21.70;99.60
13794;DHT22;31160;49.500;7.772;2022-10-28T14:48:39;21.70;99.80
13794;DHT22;31160;49.500;7.772;2022-10-28T14:51:12;21.60;99.80
13794;DHT22;31160;49.500;7.772;2022-10-28T14:53:41;21.60;99.90
13794;DHT22;31160;49.500;7.772;2022-10-28T14:56:16;21.50;99.90
13794;DHT22;31160;49.500;7.772;2022-10-28T14:58:44;21.60;99.90
13794;DHT22;31160;49.500;7.772;2022-10-28T15:03:52;21.50;99.90
13794;DHT22;31160;49.500;7.772;2022-10-28T15:09:03;21.50;99.90
13794;DHT22;31160;49.500;7.772;2022-10-28T15:11:31;21.30;99.90
13794;DHT22;31160;49.500;7.772;2022-10-28T15:14:30;21.20;99.90
13794;DHT22;31160;49.500;7.772;2022-10-28T15:16:58;21.10;99.90
13794;DHT22;31160;49.500;7.772;2022-10-28T15:19:33;21.00;99.90
13794;DHT22;31160;49.500;7.772;2022-10-28T15:24:32;20.80;99.90
13794;DHT22;31160;49.500;7.772;2022-10-28T15:27:00;20.70;99.90
13794;DHT22;31160;49.500;7.772;2022-10-28T15:29:26;20.60;99.90
13794;DHT22;31160;49.500;7.772;2022-10-28T15:34:47;20.40;99.90
13794;DHT22;31160;49.500;7.772;2022-10-28T15:37:21;20.30;99.90
13794;DHT22;31160;49.500;7.772;2022-10-28T15:39:49;20.10;99.90
13794;DHT22;31160;49.500;7.772;2022-10-28T15:42:48;20.00;99.90
13794;DHT22;31160;49.500;7.772;2022-10-28T15:45:19;19.90;99.90
13794;DHT22;31160;49.500;7.772;2022-10-28T15:47:48;19.80;99.90
13794;DHT22;31160;49.500;7.772;2022-10-28T15:52:44;19.70;99.90
13794;DHT22;31160;49.500;7.772;2022-10-28T15:55:28;19.60;99.90
13794;DHT22;31160;49.500;7.772;2022-10-28T16:00:52;19.40;99.90
13794;DHT22;31160;49.500;7.772;2022-10-28T16:03:26;19.30;99.90
13794;DHT22;31160;49.500;7.772;2022-10-28T16:05:54;19.20;99.90
13794;DHT22;31160;49.500;7.772;2022-10-28T16:08:29;19.10;99.90
13794;DHT22;31160;49.500;7.772;2022-10-28T16:11:01;19.00;99.90
13794;DHT22;31160;49.500;7.772;2022-10-28T16:13:34;18.90;99.90
13794;DHT22;31160;49.500;7.772;2022-10-28T16:16:05;18.70;99.90
13794;DHT22;31160;49.500;7.772;2022-10-28T16:18:39;18.60;99.90
13794;DHT22;31160;49.500;7.772;2022-10-28T16:21:07;18.50;99.90
13794;DHT22;31160;49.500;7.772;2022-10-28T16:23:38;18.40;99.90
13794;DHT22;31160;49.500;7.772;2022-10-28T16:26:07;18.30;99.90
13794;DHT22;31160;49.500;7.772;2022-10-28T16:28:34;18.30;99.90
13794;DHT22;31160;49.500;7.772;2022-10-28T16:31:01;18.20;99.90
13794;DHT22;31160;49.500;7.772;2022-10-28T16:33:31;18.20;99.90
13794;DHT22;31160;49.500;7.772;2022-10-28T16:35:58;18.10;99.90
13794;DHT22;31160;49.500;7.772;2022-10-28T16:38:26;18.00;99.90
13794;DHT22;31160;49.500;7.772;2022-10-28T16:40:53;17.90;99.90
13794;DHT22;31160;49.500;7.772;2022-10-28T16:43:22;17.80;99.90
13794;DHT22;31160;49.500;7.772;2022-10-28T16:45:52;17.80;99.90
13794;DHT22;31160;49.500;7.772;2022-10-28T16:48:22;17.90;99.90
13794;DHT22;31160;49.500;7.772;2022-10-28T16:50:52;17.80;99.90
13794;DHT22;31160;49.500;7.772;2022-10-28T16:53:19;17.80;99.90
13794;DHT22;31160;49.500;7.772;2022-10-28T16:55:46;17.80;99.90
13794;DHT22;31160;49.500;7.772;2022-10-28T16:58:13;17.70;99.90
13794;DHT22;31160;49.500;7.772;2022-10-28T17:00:41;17.60;99.90
13794;DHT22;31160;49.500;7.772;2022-10-28T17:03:12;17.40;99.90
13794;DHT22;31160;49.500;7.772;2022-10-28T17:05:40;17.30;99.90
13794;DHT22;31160;49.500;7.772;2022-10-28T17:08:10;17.40;99.90
13794;DHT22;31160;49.500;7.772;2022-10-28T17:10:38;17.30;99.90
13794;DHT22;31160;49.500;7.772;2022-10-28T17:13:17;17.30;99.90
13794;DHT22;31160;49.500;7.772;2022-10-28T17:15:43;17.20;99.90
13794;DHT22;31160;49.500;7.772;2022-10-28T17:18:13;17.10;99.90
13794;DHT22;31160;49.500;7.772;2022-10-28T17:20:40;17.10;99.90
13794;DHT22;31160;49.500;7.772;2022-10-28T17:23:07;17.10;99.90
13794;DHT22;31160;49.500;7.772;2022-10-28T17:25:34;17.00;99.90
13794;DHT22;31160;49.500;7.772;2022-10-28T17:28:00;17.00;99.90
13794;DHT22;31160;49.500;7.772;2022-10-28T17:30:27;17.00;99.90
13794;DHT22;31160;49.500;7.772;2022-10-28T17:32:54;17.00;99.90
13794;DHT22;31160;49.500;7.772;2022-10-28T17:35:22;17.00;99.90
13794;DHT22;31160;49.500;7.772;2022-10-28T17:37:48;16.90;99.90
13794;DHT22;31160;49.500;7.772;2022-10-28T17:40:15;16.80;99.90
13794;DHT22;31160;49.500;7.772;2022-10-28T17:42:42;16.90;99.90
13794;DHT22;31160;49.500;7.772;2022-10-28T17:45:09;16.80;99.90
13794;DHT22;31160;49.500;7.772;2022-10-28T17:47:36;16.70;99.90
13794;DHT22;31160;49.500;7.772;2022-10-28T17:50:03;16.70;99.90
13794;DHT22;31160;49.500;7.772;2022-10-28T17:52:30;16.70;99.90
13794;DHT22;31160;49.500;7.772;2022-10-28T17:55:04;16.60;99.90
13794;DHT22;31160;49.500;7.772;2022-10-28T17:57:31;16.60;99.90
13794;DHT22;31160;49.500;7.772;2022-10-28T17:59:58;16.50;99.90
13794;DHT22;31160;49.500;7.772;2022-10-28T18:02:24;16.50;99.90
13794;DHT22;31160;49.500;7.772;2022-10-28T18:04:52;16.40;99.90
13794;DHT22;31160;49.500;7.772;2022-10-28T18:07:19;16.40;99.90
13794;DHT22;31160;49.500;7.772;2022-10-28T18:09:45;16.30;99.90
13794;DHT22;31160;49.500;7.772;2022-10-28T18:12:12;16.40;99.90
13794;DHT22;31160;49.500;7.772;2022-10-28T18:14:39;16.30;99.90
13794;DHT22;31160;49.500;7.772;2022-10-28T18:17:05;16.30;99.90
13794;DHT22;31160;49.500;7.772;2022-10-28T18:19:32;16.30;99.90
13794;DHT22;31160;49.500;7.772;2022-10-28T18:21:59;16.30;99.90
13794;DHT22;31160;49.500;7.772;2022-10-28T18:24:26;16.30;99.90
13794;DHT22;31160;49.500;7.772;2022-10-28T18:26:53;16.20;99.90
13794;DHT22;31160;49.500;7.772;2022-10-28T18:29:21;16.10;99.90
13794;DHT22;31160;49.500;7.772;2022-10-28T18:31:48;16.10;99.90
13794;DHT22;31160;49.500;7.772;2022-10-28T18:34:14;16.00;99.90
13794;DHT22;31160;49.500;7.772;2022-10-28T18:36:41;16.00;99.90